Time;durP1;ratioP1;P1;durP2;ratioP2;P2;SDS_P1;SDS_P2;PMS_P1;PMS_P2;Temp;Humidity;BMP_temperature;BMP_pressure;BME280_temperature;BME280_humidity;BME280_pressure;Samples;Min_cycle;Max_cycle;Signal;HPM_P1;HPM_P2
2022/06/27 00:01:25;;;;;;;5.53;2.35;;;;;;;;;;5111185;28;20069;-72
2022/06/27 00:03:51;;;;;;;4.75;2.60;;;;;;;;;;5111109;28;20031;-72
2022/06/27 00:06:20;;;;;;;4.72;3.08;;;;;;;;;;5126432;28;20031;-72
2022/06/27 00:08:47;;;;;;;4.82;2.92;;;;;;;;;;5111246;28;20096;-72
2022/06/27 00:12:31;;;;;;;6.68;2.97;;;;;;;;;;5173556;27;20178;-71
2022/06/27 00:14:57;;;;;;;10.80;2.90;;;;;;;;;;5151984;27;20038;-71
2022/06/27 00:17:23;;;;;;;6.95;3.00;;;;;;;;;;5152601;27;20382;-71
2022/06/27 00:19:49;;;;;;;7.20;2.80;;;;;;;;;;5152286;27;20497;-71
2022/06/27 00:22:16;;;;;;;5.10;2.95;;;;;;;;;;5151808;27;20023;-71
2022/06/27 00:26:27;;;;;;;4.95;2.72;;;;;;;;;;5112042;27;20558;-71
2022/06/27 00:28:54;;;;;;;7.20;3.03;;;;;;;;;;5110762;28;20483;-71
2022/06/27 00:31:48;;;;;;;3.60;2.30;;;;;;;;;;5111332;27;20980;-71
2022/06/27 00:35:27;;;;;;;9.00;3.15;;;;;;;;;;5111087;27;20458;-71
2022/06/27 00:37:54;;;;;;;8.10;3.83;;;;;;;;;;5111250;28;20089;-71
2022/06/27 00:42:32;;;;;;;6.30;2.92;;;;;;;;;;5111067;27;20397;-71
2022/06/27 00:46:48;;;;;;;5.72;2.72;;;;;;;;;;5111275;27;20425;-71
2022/06/27 00:49:14;;;;;;;4.80;2.72;;;;;;;;;;5111050;28;20032;-71
2022/06/27 00:51:40;;;;;;;6.90;2.72;;;;;;;;;;5111207;28;20102;-71
2022/06/27 00:54:29;;;;;;;5.03;2.90;;;;;;;;;;5111843;27;20384;-71
2022/06/27 00:56:55;;;;;;;7.80;3.20;;;;;;;;;;5110766;28;20024;-70
2022/06/27 00:59:21;;;;;;;5.35;3.10;;;;;;;;;;5111420;28;20026;-71
2022/06/27 01:04:01;;;;;;;5.43;2.60;;;;;;;;;;5110849;27;20422;-71
2022/06/27 01:08:19;;;;;;;7.07;3.03;;;;;;;;;;5111925;27;20425;-71
2022/06/27 01:10:46;;;;;;;6.45;3.35;;;;;;;;;;5110826;28;20019;-71
2022/06/27 01:15:21;;;;;;;5.25;3.08;;;;;;;;;;5111845;27;20400;-71
2022/06/27 01:17:47;;;;;;;7.97;3.38;;;;;;;;;;5111019;28;20081;-71
2022/06/27 01:20:13;;;;;;;5.47;2.92;;;;;;;;;;5111414;28;20028;-71
2022/06/27 01:22:40;;;;;;;6.68;2.95;;;;;;;;;;5111209;28;20020;-71
2022/06/27 01:25:07;;;;;;;6.45;3.30;;;;;;;;;;5110632;28;20441;-72
2022/06/27 01:27:33;;;;;;;6.43;3.08;;;;;;;;;;5110992;28;20050;-72
2022/06/27 01:30:01;;;;;;;6.40;3.33;;;;;;;;;;5110986;28;20030;-72
2022/06/27 01:32:27;;;;;;;8.18;3.28;;;;;;;;;;5109303;28;20085;-72
2022/06/27 01:34:53;;;;;;;6.82;3.55;;;;;;;;;;5109480;28;20144;-72
2022/06/27 01:38:55;;;;;;;6.82;3.00;;;;;;;;;;5111292;27;20405;-71
2022/06/27 01:41:22;;;;;;;6.70;3.47;;;;;;;;;;5112002;28;20040;-71
2022/06/27 01:43:49;;;;;;;5.15;3.10;;;;;;;;;;5111418;28;20034;-72
2022/06/27 01:48:12;;;;;;;4.97;3.25;;;;;;;;;;5111859;27;20388;-71
2022/06/27 01:51:45;;;;;;;6.40;3.10;;;;;;;;;;5110853;27;20388;-71
2022/06/27 01:54:12;;;;;;;5.15;2.85;;;;;;;;;;5111412;28;20081;-70
2022/06/27 01:59:12;;;;;;;6.25;3.33;;;;;;;;;;5110792;27;20388;-71
2022/06/27 02:02:21;;;;;;;5.97;3.45;;;;;;;;;;5111707;27;20414;-71
2022/06/27 02:07:12;;;;;;;4.63;2.60;;;;;;;;;;5110944;27;20446;-71
2022/06/27 02:11:46;;;;;;;4.35;3.17;;;;;;;;;;5111289;27;20393;-71
2022/06/27 02:14:13;;;;;;;6.38;3.30;;;;;;;;;;5110886;28;20502;-71
2022/06/27 02:16:41;;;;;;;4.75;2.90;;;;;;;;;;5111184;28;20043;-71
2022/06/27 02:19:07;;;;;;;5.03;2.78;;;;;;;;;;5111308;28;20030;-71
2022/06/27 02:21:33;;;;;;;5.15;3.05;;;;;;;;;;5110654;28;20028;-71
2022/06/27 02:25:59;;;;;;;6.60;3.47;;;;;;;;;;5070796;28;20399;-71
2022/06/27 02:28:27;;;;;;;6.82;3.40;;;;;;;;;;5070333;28;20032;-71
2022/06/27 02:30:53;;;;;;;6.15;3.40;;;;;;;;;;5070669;28;20435;-71
2022/06/27 02:33:19;;;;;;;7.63;3.28;;;;;;;;;;5070662;28;20056;-71
2022/06/27 02:38:51;;;;;;;5.85;3.30;;;;;;;;;;5111741;27;20408;-72
2022/06/27 02:43:04;;;;;;;8.73;4.35;;;;;;;;;;5071285;28;20831;-71
2022/06/27 02:45:31;;;;;;;8.63;3.97;;;;;;;;;;5070969;28;20021;-72
2022/06/27 02:50:22;;;;;;;11.48;5.07;;;;;;;;;;5111332;27;20388;-71
2022/06/27 02:52:53;;;;;;;10.45;4.00;;;;;;;;;;5111348;28;20460;-71
2022/06/27 02:55:24;;;;;;;10.27;4.30;;;;;;;;;;5110964;28;20077;-71
2022/06/27 02:58:10;;;;;;;10.65;4.25;;;;;;;;;;5111149;28;20032;-71
2022/06/27 03:00:39;;;;;;;9.27;4.38;;;;;;;;;;5111196;28;20020;-71
2022/06/27 03:03:06;;;;;;;8.70;4.65;;;;;;;;;;5110741;28;20024;-71
2022/06/27 03:05:33;;;;;;;12.20;5.00;;;;;;;;;;5110976;28;20042;-71
2022/06/27 03:07:59;;;;;;;11.70;5.72;;;;;;;;;;5110887;28;20028;-71
2022/06/27 03:10:26;;;;;;;10.68;4.30;;;;;;;;;;5110607;28;20028;-71
2022/06/27 03:12:52;;;;;;;7.78;3.80;;;;;;;;;;5110901;28;20019;-71
2022/06/27 03:15:19;;;;;;;9.80;3.65;;;;;;;;;;5110825;28;20024;-71
2022/06/27 03:17:45;;;;;;;7.13;3.55;;;;;;;;;;5110428;28;20093;-71
2022/06/27 03:20:11;;;;;;;8.40;3.55;;;;;;;;;;5110779;28;20023;-71
2022/06/27 03:23:02;;;;;;;7.82;3.85;;;;;;;;;;5111381;27;20403;-72
2022/06/27 03:25:49;;;;;;;8.05;3.53;;;;;;;;;;5111607;27;20385;-72
2022/06/27 03:30:56;;;;;;;7.43;3.95;;;;;;;;;;5111249;27;20836;-71
2022/06/27 03:34:32;;;;;;;9.00;4.25;;;;;;;;;;5111817;27;20388;-71
2022/06/27 03:39:00;;;;;;;10.57;4.18;;;;;;;;;;5110889;27;20392;-71
2022/06/27 03:43:09;;;;;;;8.70;3.63;;;;;;;;;;5111739;27;20396;-72
2022/06/27 03:45:36;;;;;;;6.65;3.92;;;;;;;;;;5111146;28;20028;-72
2022/06/27 03:48:03;;;;;;;7.95;4.28;;;;;;;;;;5111778;28;20031;-72
2022/06/27 03:50:29;;;;;;;10.77;5.97;;;;;;;;;;5111174;28;20023;-72
2022/06/27 03:52:56;;;;;;;11.52;4.72;;;;;;;;;;5110699;28;20028;-72
2022/06/27 03:55:23;;;;;;;11.98;5.82;;;;;;;;;;5111076;28;20032;-72
2022/06/27 03:57:53;;;;;;;10.40;5.32;;;;;;;;;;5110980;28;20024;-72
2022/06/27 04:00:21;;;;;;;10.38;5.35;;;;;;;;;;5110993;28;20185;-72
2022/06/27 04:02:47;;;;;;;12.93;4.80;;;;;;;;;;5110872;28;20028;-72
2022/06/27 04:05:53;;;;;;;9.73;4.82;;;;;;;;;;5111485;27;20573;-71
2022/06/27 04:08:19;;;;;;;14.90;7.28;;;;;;;;;;5111508;28;20049;-71
2022/06/27 04:10:45;;;;;;;14.68;7.20;;;;;;;;;;5111503;28;20027;-72
2022/06/27 04:13:11;;;;;;;11.43;5.70;;;;;;;;;;5110740;28;20464;-71
2022/06/27 04:15:37;;;;;;;10.95;5.13;;;;;;;;;;5111109;28;20050;-71
2022/06/27 04:18:03;;;;;;;9.88;4.65;;;;;;;;;;5111079;28;20035;-71
2022/06/27 04:20:29;;;;;;;9.32;4.45;;;;;;;;;;5110653;28;20119;-71
2022/06/27 04:22:56;;;;;;;9.55;4.53;;;;;;;;;;5111209;28;20380;-71
2022/06/27 04:26:35;;;;;;;9.02;4.20;;;;;;;;;;5110883;27;20842;-72
2022/06/27 04:29:01;;;;;;;9.65;4.30;;;;;;;;;;5111408;28;20110;-71
2022/06/27 04:31:27;;;;;;;9.27;4.18;;;;;;;;;;5111420;28;20024;-71
2022/06/27 04:33:53;;;;;;;9.88;4.28;;;;;;;;;;5110603;28;20106;-71
2022/06/27 04:36:19;;;;;;;7.47;4.35;;;;;;;;;;5111125;28;20020;-70
2022/06/27 04:39:00;;;;;;;7.07;3.97;;;;;;;;;;5112138;27;20819;-71
2022/06/27 04:41:26;;;;;;;8.43;4.30;;;;;;;;;;5110911;28;20020;-71
2022/06/27 04:46:11;;;;;;;9.90;4.35;;;;;;;;;;5111748;27;20422;-70
2022/06/27 04:48:38;;;;;;;7.35;3.22;;;;;;;;;;5111372;28;20130;-71
2022/06/27 04:52:23;;;;;;;5.53;3.10;;;;;;;;;;5111699;27;20385;-71
2022/06/27 04:57:05;;;;;;;9.77;3.58;;;;;;;;;;5111498;27;20805;-70
2022/06/27 04:59:31;;;;;;;9.63;3.55;;;;;;;;;;5111279;28;20096;-71
2022/06/27 05:01:58;;;;;;;9.13;3.60;;;;;;;;;;5110792;28;20062;-70
2022/06/27 05:04:24;;;;;;;6.63;3.72;;;;;;;;;;5110800;28;20016;-69
2022/06/27 05:08:25;;;;;;;10.65;4.15;;;;;;;;;;5109102;27;20113;-73
2022/06/27 05:10:51;;;;;;;13.65;4.85;;;;;;;;;;5110212;28;20028;-71
2022/06/27 05:13:17;;;;;;;7.13;3.53;;;;;;;;;;5109275;28;20020;-70
2022/06/27 05:15:43;;;;;;;8.23;3.78;;;;;;;;;;5107844;28;20012;-72
2022/06/27 05:20:34;;;;;;;8.55;3.72;;;;;;;;;;5109064;27;20389;-71
2022/06/27 05:23:00;;;;;;;6.53;3.47;;;;;;;;;;5108267;28;20069;-71
2022/06/27 05:25:26;;;;;;;6.85;3.28;;;;;;;;;;5109588;28;20498;-70
2022/06/27 05:27:54;;;;;;;4.80;2.80;;;;;;;;;;5109558;28;20107;-72
2022/06/27 05:30:20;;;;;;;7.55;2.92;;;;;;;;;;5110339;28;20039;-72
2022/06/27 05:32:46;;;;;;;5.93;2.80;;;;;;;;;;5107328;28;20042;-72
2022/06/27 05:35:13;;;;;;;7.25;3.67;;;;;;;;;;5104762;28;20024;-71
2022/06/27 05:37:43;;;;;;;7.40;2.95;;;;;;;;;;5109664;28;20051;-71
2022/06/27 05:40:10;;;;;;;6.25;3.22;;;;;;;;;;5108338;28;20027;-71
2022/06/27 05:43:39;;;;;;;4.50;2.80;;;;;;;;;;5110166;27;20442;-69
2022/06/27 05:47:09;;;;;;;4.47;2.63;;;;;;;;;;5108283;27;20418;-69
2022/06/27 05:49:37;;;;;;;5.60;3.35;;;;;;;;;;5102569;28;20447;-69
2022/06/27 05:52:03;;;;;;;7.50;3.40;;;;;;;;;;5108573;28;20028;-70
2022/06/27 05:54:30;;;;;;;5.00;2.70;;;;;;;;;;5108952;28;20031;-70
2022/06/27 05:56:56;;;;;;;5.22;2.90;;;;;;;;;;5108889;28;20016;-69
2022/06/27 05:59:24;;;;;;;5.10;2.80;;;;;;;;;;5105936;28;20024;-69
2022/06/27 06:01:51;;;;;;;5.10;2.75;;;;;;;;;;5108069;28;20535;-70
2022/06/27 06:04:18;;;;;;;7.13;3.10;;;;;;;;;;5108909;28;20036;-71
2022/06/27 06:06:44;;;;;;;5.72;2.83;;;;;;;;;;5108266;28;20462;-70
2022/06/27 06:09:11;;;;;;;10.27;3.40;;;;;;;;;;5108665;28;20020;-71
2022/06/27 06:11:54;;;;;;;6.10;3.10;;;;;;;;;;5108604;27;20393;-71
2022/06/27 06:14:21;;;;;;;4.32;2.63;;;;;;;;;;5110146;28;20492;-71
2022/06/27 06:16:49;;;;;;;4.07;2.70;;;;;;;;;;5111058;28;20355;-71
2022/06/27 06:19:16;;;;;;;5.68;2.83;;;;;;;;;;5109351;28;20051;-71
2022/06/27 06:22:21;;;;;;;6.03;3.47;;;;;;;;;;5111314;27;20388;-70
2022/06/27 06:24:47;;;;;;;4.93;2.92;;;;;;;;;;5095144;28;20024;-70
2022/06/27 06:27:14;;;;;;;7.80;2.80;;;;;;;;;;5087406;28;20020;-70
2022/06/27 06:29:41;;;;;;;5.68;3.03;;;;;;;;;;5100552;28;20032;-71
2022/06/27 06:32:07;;;;;;;6.10;2.47;;;;;;;;;;5103986;28;20020;-70
2022/06/27 06:34:34;;;;;;;6.25;2.80;;;;;;;;;;5098261;28;20469;-69
2022/06/27 06:37:00;;;;;;;5.00;2.85;;;;;;;;;;5110137;28;20028;-68
2022/06/27 06:39:26;;;;;;;3.88;2.50;;;;;;;;;;5108039;28;20491;-68
2022/06/27 06:41:52;;;;;;;4.85;2.90;;;;;;;;;;5102242;28;20035;-70
2022/06/27 06:44:19;;;;;;;8.88;3.55;;;;;;;;;;5101643;28;20024;-70
2022/06/27 06:46:45;;;;;;;4.53;2.58;;;;;;;;;;5102721;28;20435;-70
2022/06/27 06:49:12;;;;;;;6.07;2.53;;;;;;;;;;5107673;28;20042;-69
2022/06/27 06:51:39;;;;;;;4.50;2.55;;;;;;;;;;5108122;28;20099;-69
2022/06/27 06:54:06;;;;;;;4.65;2.40;;;;;;;;;;5107891;28;20027;-69
2022/06/27 06:56:33;;;;;;;5.75;3.13;;;;;;;;;;5106057;28;20504;-69
2022/06/27 06:59:42;;;;;;;3.70;2.42;;;;;;;;;;5091050;27;20117;-69
2022/06/27 07:02:08;;;;;;;4.25;2.33;;;;;;;;;;5090172;28;20491;-69
2022/06/27 07:04:36;;;;;;;3.80;2.10;;;;;;;;;;5090643;28;20465;-70
2022/06/27 07:07:02;;;;;;;3.83;2.20;;;;;;;;;;5090378;28;20047;-71
2022/06/27 07:09:28;;;;;;;5.60;2.50;;;;;;;;;;5089943;28;20062;-69
2022/06/27 07:11:55;;;;;;;3.60;2.00;;;;;;;;;;5087840;28;20020;-69
2022/06/27 07:14:23;;;;;;;6.30;2.65;;;;;;;;;;5086053;28;20020;-72
2022/06/27 07:16:49;;;;;;;4.35;2.25;;;;;;;;;;5089612;28;20426;-70
2022/06/27 07:19:16;;;;;;;4.53;2.40;;;;;;;;;;5080987;28;20579;-71
2022/06/27 07:23:06;;;;;;;5.63;3.08;;;;;;;;;;5098880;27;20449;-70
2022/06/27 07:25:35;;;;;;;3.83;2.67;;;;;;;;;;5076617;28;20465;-69
2022/06/27 07:28:01;;;;;;;3.58;2.33;;;;;;;;;;5066622;28;20377;-68
2022/06/27 07:32:25;;;;;;;2.95;1.90;;;;;;;;;;5106159;27;20417;-69
2022/06/27 07:34:54;;;;;;;5.38;2.60;;;;;;;;;;5110722;28;20055;-68
2022/06/27 07:39:27;;;;;;;4.22;1.83;;;;;;;;;;5121927;27;20334;-69
2022/06/27 07:41:54;;;;;;;3.95;2.20;;;;;;;;;;5090547;28;20086;-70
2022/06/27 07:44:22;;;;;;;5.20;2.00;;;;;;;;;;5089118;28;20028;-69
2022/06/27 07:46:48;;;;;;;3.65;1.95;;;;;;;;;;5089328;28;20480;-70
2022/06/27 07:49:15;;;;;;;2.83;1.95;;;;;;;;;;5089572;28;20123;-68
2022/06/27 07:51:41;;;;;;;3.03;1.65;;;;;;;;;;5089804;28;20035;-69
2022/06/27 07:54:10;;;;;;;2.40;1.67;;;;;;;;;;5088366;28;20029;-68
2022/06/27 07:56:37;;;;;;;2.67;1.80;;;;;;;;;;5088475;28;20020;-71
2022/06/27 07:59:06;;;;;;;7.13;1.80;;;;;;;;;;5088484;28;20111;-70
2022/06/27 08:01:33;;;;;;;3.97;1.98;;;;;;;;;;5070678;28;20012;-70
2022/06/27 08:04:01;;;;;;;2.58;1.63;;;;;;;;;;5092208;28;20058;-70
2022/06/27 08:06:28;;;;;;;1.83;1.40;;;;;;;;;;5093467;28;20092;-70
2022/06/27 08:08:57;;;;;;;2.47;1.77;;;;;;;;;;5087185;28;20035;-70
2022/06/27 08:11:27;;;;;;;7.07;1.90;;;;;;;;;;5085536;28;20040;-69
2022/06/27 08:13:55;;;;;;;2.22;1.13;;;;;;;;;;5086231;28;20025;-72
2022/06/27 08:16:22;;;;;;;3.28;1.58;;;;;;;;;;5086182;28;20024;-69
2022/06/27 08:18:50;;;;;;;2.10;1.40;;;;;;;;;;5086613;28;20044;-70
2022/06/27 08:21:18;;;;;;;4.60;1.30;;;;;;;;;;5086998;28;20051;-72
2022/06/27 08:23:46;;;;;;;2.45;1.35;;;;;;;;;;5087589;28;20113;-71
2022/06/27 08:26:13;;;;;;;1.70;1.20;;;;;;;;;;5088481;28;20024;-70
2022/06/27 08:28:40;;;;;;;4.22;1.80;;;;;;;;;;5088994;28;20077;-69
2022/06/27 08:31:07;;;;;;;1.45;1.25;;;;;;;;;;5088727;28;20526;-69
2022/06/27 08:33:34;;;;;;;1.77;1.45;;;;;;;;;;5070331;28;20384;-72
2022/06/27 08:36:01;;;;;;;1.88;1.20;;;;;;;;;;5091084;28;20020;-70
2022/06/27 08:38:28;;;;;;;2.13;1.42;;;;;;;;;;5087195;28;20053;-71
2022/06/27 08:40:54;;;;;;;4.55;1.55;;;;;;;;;;5085832;28;20062;-72
2022/06/27 08:43:21;;;;;;;3.10;1.42;;;;;;;;;;5072943;28;20389;-70
2022/06/27 08:45:47;;;;;;;3.45;1.40;;;;;;;;;;5067946;28;20098;-73
2022/06/27 08:48:14;;;;;;;2.25;1.35;;;;;;;;;;5066795;28;20624;-73
2022/06/27 08:50:42;;;;;;;0.98;0.93;;;;;;;;;;5052338;28;20549;-74
2022/06/27 08:53:10;;;;;;;5.07;1.30;;;;;;;;;;5054350;28;20033;-76
2022/06/27 08:55:36;;;;;;;1.77;1.20;;;;;;;;;;5050344;28;20385;-71
2022/06/27 08:58:10;;;;;;;2.35;1.10;;;;;;;;;;5050650;28;20112;-74
2022/06/27 09:00:45;;;;;;;2.17;1.17;;;;;;;;;;5050292;28;20609;-73
2022/06/27 09:03:12;;;;;;;2.80;1.02;;;;;;;;;;5052679;28;20095;-72
2022/06/27 09:05:39;;;;;;;1.77;1.20;;;;;;;;;;5069966;28;20016;-72
2022/06/27 09:08:06;;;;;;;2.03;1.20;;;;;;;;;;5064456;28;20518;-72
2022/06/27 09:10:32;;;;;;;1.77;1.27;;;;;;;;;;5071040;28;20138;-72
2022/06/27 09:13:00;;;;;;;2.63;1.85;;;;;;;;;;5070459;28;20024;-73
2022/06/27 09:15:28;;;;;;;2.58;1.70;;;;;;;;;;5072685;28;20043;-68
2022/06/27 09:18:04;;;;;;;3.72;1.90;;;;;;;;;;5070791;28;20039;-72
2022/06/27 09:20:53;;;;;;;3.72;1.60;;;;;;;;;;5057141;28;20029;-72
2022/06/27 09:23:41;;;;;;;2.78;1.65;;;;;;;;;;5053572;28;20021;-71
2022/06/27 09:26:10;;;;;;;2.53;1.05;;;;;;;;;;5063929;28;20020;-69
2022/06/27 09:28:39;;;;;;;1.35;0.80;;;;;;;;;;5062201;28;20060;-73
2022/06/27 09:31:06;;;;;;;1.42;0.90;;;;;;;;;;5045153;28;20444;-71
2022/06/27 09:33:33;;;;;;;1.98;1.27;;;;;;;;;;5065495;28;20037;-72
2022/06/27 09:36:08;;;;;;;3.28;1.30;;;;;;;;;;5072052;28;20071;-72
2022/06/27 09:38:34;;;;;;;2.83;1.40;;;;;;;;;;5072448;28;20611;-72
2022/06/27 09:41:01;;;;;;;1.98;0.98;;;;;;;;;;5071660;28;20532;-71
2022/06/27 09:43:29;;;;;;;0.80;0.70;;;;;;;;;;5051107;28;20408;-70
2022/06/27 09:45:56;;;;;;;3.22;1.00;;;;;;;;;;5074009;28;20026;-72
2022/06/27 09:48:23;;;;;;;1.17;0.93;;;;;;;;;;5074428;28;20032;-72
2022/06/27 09:50:51;;;;;;;1.95;0.80;;;;;;;;;;5072574;28;20039;-70
2022/06/27 09:53:18;;;;;;;2.92;1.35;;;;;;;;;;5055747;28;20020;-70
2022/06/27 09:55:46;;;;;;;2.03;1.40;;;;;;;;;;5074039;28;20226;-70
2022/06/27 09:58:12;;;;;;;1.42;1.00;;;;;;;;;;5073157;28;20146;-69
2022/06/27 10:00:41;;;;;;;2.17;1.30;;;;;;;;;;5072783;28;20032;-67
2022/06/27 10:03:07;;;;;;;2.50;1.10;;;;;;;;;;5073457;28;20024;-68
2022/06/27 10:05:34;;;;;;;4.00;1.38;;;;;;;;;;5072803;28;20028;-68
2022/06/27 10:08:03;;;;;;;2.28;1.27;;;;;;;;;;5064724;28;20013;-69
2022/06/27 10:10:30;;;;;;;2.25;1.10;;;;;;;;;;5072113;28;20028;-68
2022/06/27 10:13:01;;;;;;;1.73;1.10;;;;;;;;;;5067102;28;20017;-71
2022/06/27 10:15:30;;;;;;;1.55;1.10;;;;;;;;;;5053673;28;20059;-69
2022/06/27 10:18:02;;;;;;;4.38;1.30;;;;;;;;;;5052274;28;20766;-70
2022/06/27 10:20:31;;;;;;;4.18;1.42;;;;;;;;;;5052928;28;20018;-71
2022/06/27 10:23:09;;;;;;;9.57;1.35;;;;;;;;;;5035147;28;20076;-71
2022/06/27 10:25:36;;;;;;;1.70;1.08;;;;;;;;;;5052357;28;20092;-71
2022/06/27 10:28:09;;;;;;;4.38;1.38;;;;;;;;;;5065333;28;20029;-71
2022/06/27 10:30:44;;;;;;;1.85;1.20;;;;;;;;;;5054945;28;20021;-73
2022/06/27 10:33:25;;;;;;;2.13;1.20;;;;;;;;;;5072320;28;20020;-70
2022/06/27 10:35:55;;;;;;;2.27;1.07;;;;;;;;;;5073317;28;20093;-70
2022/06/27 10:38:21;;;;;;;2.78;1.17;;;;;;;;;;5072975;28;20404;-69
2022/06/27 10:40:48;;;;;;;3.90;1.20;;;;;;;;;;5050927;28;20039;-71
2022/06/27 10:43:33;;;;;;;2.15;1.10;;;;;;;;;;5052820;28;20742;-71
2022/06/27 10:45:59;;;;;;;2.92;1.20;;;;;;;;;;5054102;28;20028;-70
2022/06/27 10:48:35;;;;;;;2.30;1.08;;;;;;;;;;5052614;28;20110;-71
2022/06/27 10:51:27;;;;;;;1.65;0.90;;;;;;;;;;5052312;28;20032;-71
2022/06/27 10:54:05;;;;;;;2.50;0.95;;;;;;;;;;5043291;28;20486;-70
2022/06/27 10:56:36;;;;;;;1.65;0.90;;;;;;;;;;5052287;28;20366;-71
2022/06/27 10:59:02;;;;;;;4.28;1.10;;;;;;;;;;5052305;28;20029;-72
2022/06/27 11:01:29;;;;;;;0.88;0.80;;;;;;;;;;5051340;28;20021;-70
2022/06/27 11:03:55;;;;;;;2.13;1.10;;;;;;;;;;5051041;28;20043;-71
2022/06/27 11:06:22;;;;;;;4.25;1.00;;;;;;;;;;5051195;28;20677;-69
2022/06/27 11:08:49;;;;;;;1.58;0.93;;;;;;;;;;5068882;28;20488;-71
2022/06/27 11:11:20;;;;;;;3.38;1.27;;;;;;;;;;5070251;28;20110;-71
2022/06/27 11:13:47;;;;;;;1.58;1.02;;;;;;;;;;5065705;28;20024;-70
2022/06/27 11:16:18;;;;;;;1.33;0.88;;;;;;;;;;5062950;28;20020;-71
2022/06/27 11:18:45;;;;;;;1.50;1.10;;;;;;;;;;5067721;28;20086;-70
2022/06/27 11:21:12;;;;;;;2.40;1.30;;;;;;;;;;5069364;28;20020;-70
2022/06/27 11:23:52;;;;;;;2.13;1.00;;;;;;;;;;5065889;28;20025;-70
2022/06/27 11:26:19;;;;;;;2.78;1.23;;;;;;;;;;5072958;28;20020;-70
2022/06/27 11:34:15;;;;;;;1.55;1.00;;;;;;;;;;5071888;28;20067;-72
2022/06/27 11:36:42;;;;;;;1.33;1.00;;;;;;;;;;5071618;28;20388;-73
2022/06/27 11:39:08;;;;;;;1.85;1.10;;;;;;;;;;5072228;28;20072;-74
2022/06/27 11:41:38;;;;;;;1.20;1.10;;;;;;;;;;5073353;28;20540;-73
2022/06/27 11:44:07;;;;;;;2.28;1.02;;;;;;;;;;5056380;28;20036;-74
2022/06/27 11:46:37;;;;;;;2.40;1.08;;;;;;;;;;5050930;28;20021;-75
2022/06/27 11:49:05;;;;;;;1.52;1.13;;;;;;;;;;5051404;28;20070;-73
2022/06/27 11:51:33;;;;;;;2.42;1.20;;;;;;;;;;5051873;28;20405;-73
2022/06/27 11:54:05;;;;;;;2.58;1.10;;;;;;;;;;5035454;28;20025;-72
2022/06/27 11:56:32;;;;;;;2.22;1.20;;;;;;;;;;5056246;28;20029;-73
2022/06/27 11:58:59;;;;;;;2.22;1.23;;;;;;;;;;5057114;28;20044;-72
2022/06/27 12:01:25;;;;;;;3.78;1.25;;;;;;;;;;5052769;28;20489;-73
2022/06/27 12:04:10;;;;;;;1.38;1.10;;;;;;;;;;5036616;28;20032;-72
2022/06/27 12:06:44;;;;;;;1.50;1.10;;;;;;;;;;5058396;28;20029;-73
2022/06/27 12:09:10;;;;;;;3.40;1.00;;;;;;;;;;5051688;28;20025;-73
2022/06/27 12:11:37;;;;;;;3.03;1.20;;;;;;;;;;5052157;28;20025;-74
2022/06/27 12:14:03;;;;;;;3.25;1.45;;;;;;;;;;5052609;28;20022;-72
2022/06/27 12:16:43;;;;;;;1.55;0.80;;;;;;;;;;5052578;28;20029;-73
2022/06/27 12:19:10;;;;;;;2.17;0.77;;;;;;;;;;5052027;28;20044;-72
2022/06/27 12:21:36;;;;;;;1.63;1.00;;;;;;;;;;5049667;28;20033;-72
2022/06/27 12:24:02;;;;;;;2.50;1.48;;;;;;;;;;5052630;28;20071;-73
2022/06/27 12:26:28;;;;;;;0.93;0.77;;;;;;;;;;5056039;28;20043;-73
2022/06/27 12:28:54;;;;;;;5.60;1.00;;;;;;;;;;5056155;28;20179;-73
2022/06/27 12:31:21;;;;;;;7.93;1.20;;;;;;;;;;5056238;28;20066;-74
2022/06/27 12:33:47;;;;;;;1.90;1.00;;;;;;;;;;5055442;28;20060;-74
2022/06/27 12:36:14;;;;;;;1.90;0.90;;;;;;;;;;5056017;28;20032;-72
2022/06/27 12:38:41;;;;;;;2.25;1.00;;;;;;;;;;5055475;28;20049;-75
2022/06/27 12:41:14;;;;;;;1.33;0.80;;;;;;;;;;5064636;28;20081;-73
2022/06/27 12:43:44;;;;;;;1.45;0.90;;;;;;;;;;5071496;28;20033;-73
2022/06/27 12:46:11;;;;;;;1.70;0.90;;;;;;;;;;5074463;28;20162;-73
2022/06/27 12:48:38;;;;;;;2.40;0.75;;;;;;;;;;5075894;28;20095;-73
2022/06/27 12:51:05;;;;;;;0.98;0.75;;;;;;;;;;5075652;28;20051;-73
2022/06/27 12:53:31;;;;;;;1.27;1.10;;;;;;;;;;5075450;28;20031;-73
2022/06/27 12:56:02;;;;;;;1.35;0.90;;;;;;;;;;5075716;28;20028;-72
2022/06/27 12:58:28;;;;;;;1.70;1.00;;;;;;;;;;5075715;28;20059;-71
2022/06/27 13:00:54;;;;;;;1.25;0.80;;;;;;;;;;5075184;28;20035;-71
2022/06/27 13:03:20;;;;;;;1.55;0.70;;;;;;;;;;5070957;28;20375;-71
2022/06/27 13:05:47;;;;;;;2.00;1.10;;;;;;;;;;5075564;28;20021;-72
2022/06/27 13:08:13;;;;;;;1.90;1.02;;;;;;;;;;5075172;28;20020;-73
2022/06/27 13:10:39;;;;;;;2.40;1.10;;;;;;;;;;5075601;28;20024;-70
2022/06/27 13:13:06;;;;;;;2.40;0.80;;;;;;;;;;5055254;28;20431;-73
2022/06/27 13:15:35;;;;;;;1.08;0.77;;;;;;;;;;5072165;28;20520;-71
2022/06/27 13:18:01;;;;;;;1.15;0.80;;;;;;;;;;5075254;28;20025;-73
2022/06/27 13:20:35;;;;;;;1.73;0.90;;;;;;;;;;5045061;28;20056;-71
2022/06/27 13:23:03;;;;;;;2.63;1.17;;;;;;;;;;5054266;28;20021;-71
2022/06/27 13:25:30;;;;;;;2.08;1.25;;;;;;;;;;5037282;28;20059;-72
2022/06/27 13:28:07;;;;;;;1.52;0.90;;;;;;;;;;5054655;28;20036;-71
2022/06/27 13:30:34;;;;;;;2.20;0.60;;;;;;;;;;5055030;28;20417;-73
2022/06/27 13:33:00;;;;;;;1.10;0.70;;;;;;;;;;5054922;28;20108;-73
2022/06/27 13:35:27;;;;;;;1.65;0.80;;;;;;;;;;5036594;28;20024;-73
2022/06/27 13:37:53;;;;;;;0.75;0.63;;;;;;;;;;5054676;28;20060;-73
2022/06/27 13:40:19;;;;;;;0.95;0.68;;;;;;;;;;5054888;28;20024;-73
2022/06/27 13:42:45;;;;;;;2.75;1.30;;;;;;;;;;5036540;28;20025;-73
2022/06/27 13:45:12;;;;;;;2.30;1.00;;;;;;;;;;5054597;28;20518;-73
2022/06/27 13:47:38;;;;;;;1.00;0.80;;;;;;;;;;5054459;28;20045;-72
2022/06/27 13:50:05;;;;;;;1.92;1.00;;;;;;;;;;5056875;28;20067;-72
2022/06/27 13:52:32;;;;;;;1.55;0.65;;;;;;;;;;5056568;28;20095;-71
2022/06/27 13:54:59;;;;;;;1.48;0.80;;;;;;;;;;5054475;28;20473;-72
2022/06/27 13:57:26;;;;;;;2.35;0.95;;;;;;;;;;5054114;28;20394;-73
2022/06/27 13:59:53;;;;;;;1.25;0.82;;;;;;;;;;5054444;28;20040;-72
2022/06/27 14:02:20;;;;;;;0.90;0.70;;;;;;;;;;5054644;28;20017;-72
2022/06/27 14:04:46;;;;;;;5.45;1.08;;;;;;;;;;5053976;28;20044;-72
2022/06/27 14:09:57;;;;;;;0.75;0.63;;;;;;;;;;5054251;28;20032;-75
2022/06/27 14:12:23;;;;;;;2.05;0.90;;;;;;;;;;5053756;28;20025;-74
2022/06/27 14:14:49;;;;;;;5.85;3.10;;;;;;;;;;5054223;28;20020;-75
2022/06/27 14:17:16;;;;;;;7.97;5.10;;;;;;;;;;5053785;28;20028;-74
2022/06/27 14:19:42;;;;;;;1.95;0.98;;;;;;;;;;5054205;28;20491;-74
2022/06/27 14:22:08;;;;;;;1.58;0.60;;;;;;;;;;5054067;28;20025;-74
2022/06/27 14:24:35;;;;;;;1.60;0.85;;;;;;;;;;5053727;28;20492;-74
2022/06/27 14:27:01;;;;;;;2.13;0.73;;;;;;;;;;5054480;28;20029;-74
2022/06/27 14:29:27;;;;;;;2.75;0.77;;;;;;;;;;5054215;28;20029;-74
2022/06/27 14:31:53;;;;;;;1.52;0.60;;;;;;;;;;5053659;28;20082;-74
2022/06/27 14:34:20;;;;;;;1.20;0.68;;;;;;;;;;5053333;28;20096;-74
2022/06/27 14:36:46;;;;;;;1.58;0.90;;;;;;;;;;5053923;28;20056;-74
2022/06/27 14:39:13;;;;;;;1.65;0.95;;;;;;;;;;5053425;28;20045;-73
2022/06/27 14:41:45;;;;;;;4.07;0.98;;;;;;;;;;5053938;28;20048;-73
2022/06/27 14:44:11;;;;;;;2.08;0.73;;;;;;;;;;5054008;28;20545;-73
2022/06/27 14:46:38;;;;;;;1.75;0.95;;;;;;;;;;5052979;28;20029;-73
2022/06/27 14:49:04;;;;;;;4.97;1.40;;;;;;;;;;5053616;28;20021;-73
2022/06/27 14:51:31;;;;;;;0.93;0.57;;;;;;;;;;5053757;28;20029;-72
2022/06/27 14:53:57;;;;;;;1.60;0.98;;;;;;;;;;5053402;28;20017;-73
2022/06/27 14:56:23;;;;;;;0.73;0.73;;;;;;;;;;5053726;28;20025;-73
2022/06/27 14:58:49;;;;;;;1.77;0.95;;;;;;;;;;5035596;28;20401;-73
2022/06/27 15:01:15;;;;;;;1.88;0.90;;;;;;;;;;5053154;28;20021;-73
2022/06/27 15:03:41;;;;;;;3.65;0.82;;;;;;;;;;5053404;28;20025;-72
2022/06/27 15:06:08;;;;;;;1.40;0.80;;;;;;;;;;5053273;28;20025;-72
2022/06/27 15:08:36;;;;;;;1.85;0.63;;;;;;;;;;5053000;28;20056;-73
2022/06/27 15:13:47;;;;;;;0.85;0.68;;;;;;;;;;5052984;28;20036;-72
2022/06/27 15:16:13;;;;;;;3.03;1.00;;;;;;;;;;5053259;28;20047;-72
2022/06/27 15:18:40;;;;;;;1.02;0.80;;;;;;;;;;5053313;28;20398;-72
2022/06/27 15:21:06;;;;;;;1.40;0.73;;;;;;;;;;5052816;28;20025;-72
2022/06/27 15:23:32;;;;;;;4.13;1.00;;;;;;;;;;5053113;28;20203;-72
2022/06/27 15:25:58;;;;;;;2.15;0.90;;;;;;;;;;5053085;28;20465;-73
2022/06/27 15:28:24;;;;;;;1.77;1.15;;;;;;;;;;5052751;28;20035;-73
2022/06/27 15:30:50;;;;;;;1.25;0.85;;;;;;;;;;5053053;28;20100;-73
2022/06/27 15:33:16;;;;;;;2.90;1.05;;;;;;;;;;5053082;28;20018;-73
2022/06/27 15:35:44;;;;;;;1.70;0.77;;;;;;;;;;5052692;28;20025;-73
2022/06/27 15:38:10;;;;;;;3.25;0.85;;;;;;;;;;5051296;28;20393;-72
2022/06/27 15:40:36;;;;;;;2.17;0.90;;;;;;;;;;5072987;28;20453;-72
2022/06/27 15:43:03;;;;;;;4.63;0.90;;;;;;;;;;5072578;28;20031;-72
2022/06/27 15:45:30;;;;;;;1.48;0.68;;;;;;;;;;5073149;28;20028;-73
2022/06/27 15:47:56;;;;;;;1.08;0.90;;;;;;;;;;5072871;28;20021;-73
2022/06/27 15:50:22;;;;;;;1.20;0.80;;;;;;;;;;5072587;28;20104;-73
2022/06/27 15:52:49;;;;;;;1.30;0.75;;;;;;;;;;5072906;28;20058;-73
2022/06/27 15:55:15;;;;;;;0.68;0.60;;;;;;;;;;5072862;28;20489;-72
2022/06/27 15:57:41;;;;;;;1.83;0.80;;;;;;;;;;5072437;28;20036;-73
2022/06/27 16:00:08;;;;;;;2.13;1.08;;;;;;;;;;5074942;28;20040;-72
2022/06/27 16:02:34;;;;;;;1.65;0.77;;;;;;;;;;5076439;28;20112;-73